Wednesday, January 17, 2018, 9:56 AM EST
Back to Local

KMFV, Melfa / Accomack Airport

Location: Melfa, VA, United States Lat: 37.65
Local Time: 9:56 AM EST (14:56 GMT) Lon: -75.767
Time Zone: US/Eastern Elev: 49 ft

Show me the last for .
Show Decoded

2018-01-17 09:35 METAR KMFV 171435Z AUTO 35009G19KT 7SM OVC007 01/M01 A3033 RMK AO2 T00051007 =
2018-01-17 09:15 METAR KMFV 171415Z AUTO 34011G16KT 320V030 5SM BR OVC007 01/00 A3033 RMK AO2
                 T00051005 =
2018-01-17 08:55 METAR KMFV 171355Z AUTO 33006G15KT 310V010 5SM BR OVC007 01/00 A3031 RMK AO2
                 T00061003 =
2018-01-17 08:35 METAR KMFV 171335Z AUTO 35008G14KT 5SM BR OVC007 01/00 A3031 RMK AO2 T00061002 =
2018-01-17 08:15 METAR KMFV 171315Z AUTO 33008KT 300V360 5SM BR OVC007 01/00 A3030 RMK AO2
                 T00061002 =
2018-01-17 07:55 METAR KMFV 171255Z AUTO 34008G14KT 5SM BR OVC007 01/00 A3031 RMK AO2 T00051002 =
2018-01-17 07:35 METAR KMFV 171235Z AUTO 34007G15KT 7SM BKN007 BKN090 01/00 A3030 RMK AO2
                 T00051005 =
2018-01-17 07:15 METAR KMFV 171215Z AUTO 34007KT 10SM SCT090 01/00 A3030 RMK AO2 T00051005 =
2018-01-17 06:55 METAR KMFV 171155Z AUTO 34009G16KT 10SM SCT090 01/00 A3030 RMK AO2 T00061005
                 10008 21020 =
2018-01-17 06:35 METAR KMFV 171135Z AUTO 34007G15KT 10SM SCT090 01/00 A3029 RMK AO2 T00061005 =
2018-01-17 06:15 METAR KMFV 171115Z AUTO 33008G14KT 10SM CLR 01/00 A3029 RMK AO2 T00071002 =
2018-01-17 05:55 METAR KMFV 171055Z AUTO 33006KT 10SM CLR 01/00 A3030 RMK AO2 T00071002 =
2018-01-17 05:35 METAR KMFV 171035Z AUTO 34005KT 10SM CLR 01/00 A3029 RMK AO2 T00070000 =
2018-01-17 05:15 METAR KMFV 171015Z AUTO 33006KT 10SM SCT085 01/00 A3029 RMK AO2 T00050001 =
2018-01-17 04:55 METAR KMFV 170955Z AUTO 00000KT 10SM BKN085 00/00 A3028 RMK AO2 T00020000 =
2018-01-17 04:35 METAR KMFV 170935Z AUTO 31004KT 7SM BKN085 00/00 A3029 RMK AO2 T10011003 =
2018-01-17 04:15 METAR KMFV 170915Z AUTO 31003KT 7SM SCT085 00/00 A3028 RMK AO2 T10021004 =
2018-01-17 03:55 METAR KMFV 170855Z AUTO 30003KT 7SM CLR 00/00 A3029 RMK AO2 T10041005 =
2018-01-17 03:35 METAR KMFV 170835Z AUTO 30003KT 7SM CLR 00/00 A3029 RMK AO2 T10011003 =
2018-01-17 03:15 METAR KMFV 170815Z AUTO 00000KT 7SM CLR M01/M01 A3028 RMK AO2 T10061008 =
2018-01-17 02:55 METAR KMFV 170755Z AUTO 30006KT 7SM CLR M01/M01 A3028 RMK AO2 T10081010 =
2018-01-17 02:35 METAR KMFV 170735Z AUTO 29003KT 10SM CLR M02/M02 A3028 RMK AO2 T10171020 =
2018-01-17 02:15 METAR KMFV 170715Z AUTO 00000KT 7SM CLR M01/M02 A3028 RMK AO2 T10151017 =
2018-01-17 01:55 METAR KMFV 170655Z AUTO 30003KT 7SM SCT120 M02/M02 A3028 RMK AO2 T10201022 =
2018-01-17 01:35 METAR KMFV 170635Z AUTO 31004KT 10SM BKN120 M01/M02 A3028 RMK AO2 T10151018 =
2018-01-17 01:15 METAR KMFV 170615Z AUTO 30003KT 10SM BKN120 M01/M02 A3029 RMK AO2 T10131017 =
2018-01-17 00:55 METAR KMFV 170555Z AUTO 00000KT 10SM SCT120 M01/M02 A3029 RMK AO2 T10131016
                 11010 21024 =
2018-01-17 00:35 METAR KMFV 170535Z AUTO 30003KT 7SM CLR M01/M01 A3030 RMK AO2 T10111015 =
2018-01-17 00:15 METAR KMFV 170515Z AUTO 00000KT 10SM CLR M01/M01 A3030 RMK AO2 T10111015 =
2018-01-16 23:55 METAR KMFV 170455Z AUTO 30003KT 10SM CLR M01/M01 A3031 RMK AO2 T10101015
                 400401024 =
2018-01-16 23:35 METAR KMFV 170435Z AUTO 29004KT 10SM CLR M01/M02 A3032 RMK AO2 T10131017 =
2018-01-16 23:15 METAR KMFV 170415Z AUTO 29003KT 10SM CLR M02/M02 A3033 RMK AO2 T10161020 =
2018-01-16 22:55 METAR KMFV 170355Z AUTO 00000KT 10SM CLR M02/M02 A3032 RMK AO2 T10171021 =
2018-01-16 22:35 METAR KMFV 170335Z AUTO 00000KT 7SM CLR M02/M02 A3033 RMK AO2 T10161020 =
2018-01-16 22:15 METAR KMFV 170315Z AUTO 00000KT 10SM CLR M02/M02 A3033 RMK AO2 T10181020 =
2018-01-16 21:55 METAR KMFV 170255Z AUTO 33003KT 7SM CLR M02/M02 A3034 RMK AO2 T10201021 =
2018-01-16 21:35 METAR KMFV 170235Z AUTO 31003KT 7SM CLR M02/M02 A3034 RMK AO2 T10211025 =
2018-01-16 21:15 METAR KMFV 170215Z AUTO 00000KT 7SM CLR M02/M02 A3033 RMK AO2 T10211024 =
2018-01-16 20:55 METAR KMFV 170155Z AUTO 31003KT 7SM CLR M02/M03 A3034 RMK AO2 T10231026 =
2018-01-16 20:35 METAR KMFV 170135Z AUTO 30003KT 7SM CLR M02/M02 A3034 RMK AO2 T10201023 =
2018-01-16 20:15 METAR KMFV 170115Z AUTO 00000KT 4SM BR CLR M02/M02 A3034 RMK AO2 T10191020 =
2018-01-16 19:55 METAR KMFV 170055Z AUTO 00000KT 4SM BR CLR M02/M02 A3035 RMK AO2 T10201021 =
2018-01-16 19:35 METAR KMFV 170035Z AUTO 00000KT 5SM BR SCT013 M01/M02 A3035 RMK AO2 T10151016 =
2018-01-16 19:15 METAR KMFV 170015Z AUTO 00000KT 4SM BR SCT013 M02/M02 A3035 RMK AO2 T10171019 =
2018-01-16 18:55 METAR KMFV 162355Z AUTO 00000KT 5SM BR CLR M01/M01 A3036 RMK AO2 T10131015 10028
                 21015 =
2018-01-16 18:35 METAR KMFV 162335Z AUTO 00000KT 5SM BR CLR M01/M01 A3036 RMK AO2 T10131015 =
2018-01-16 18:15 METAR KMFV 162315Z AUTO 00000KT 7SM SCT003 SCT006 M01/M01 A3036 RMK AO2
                 T10121015 =
2018-01-16 17:55 METAR KMFV 162255Z AUTO 00000KT 7SM BKN003 M01/M01 A3035 RMK AO2 T10121015 =
2018-01-16 17:35 METAR KMFV 162235Z AUTO 32003KT 5SM BR OVC003 M01/M01 A3035 RMK AO2 T10101013 =
2018-01-16 17:15 METAR KMFV 162215Z AUTO 31004KT 1SM BR OVC003 M01/M01 A3035 RMK AO2 T10061010 =
2018-01-16 16:55 METAR KMFV 162155Z AUTO 29004KT 7SM BKN003 00/M01 A3035 RMK AO2 T10051010 =
2018-01-16 16:35 METAR KMFV 162135Z AUTO 29004KT 10SM CLR 00/M01 A3035 RMK AO2 T00021006 =
2018-01-16 16:15 METAR KMFV 162115Z AUTO 29006KT 10SM CLR 01/00 A3035 RMK AO2 T00140000 =
2018-01-16 15:55 METAR KMFV 162055Z AUTO 28003KT 10SM CLR 02/00 A3035 RMK AO2 T00240001 =
2018-01-16 15:35 METAR KMFV 162035Z AUTO 28003KT 10SM CLR 03/00 A3035 RMK AO2 T00270003 =
2018-01-16 15:15 METAR KMFV 162015Z AUTO 28003KT 10SM CLR 03/00 A3036 RMK AO2 T00270001 =
2018-01-16 14:55 METAR KMFV 161955Z AUTO 30004KT 10SM CLR 02/00 A3036 RMK AO2 T00240001 =
2018-01-16 14:35 METAR KMFV 161935Z AUTO 31004KT 10SM SCT006 02/00 A3037 RMK AO2 T00171001 =
2018-01-16 14:15 METAR KMFV 161915Z AUTO 31005KT 10SM SCT006 02/00 A3038 RMK AO2 T00151001 =
2018-01-16 13:55 METAR KMFV 161855Z AUTO 29006KT 10SM SCT006 02/00 A3039 RMK AO2 T00190000 =
2018-01-16 13:35 METAR KMFV 161835Z AUTO 29007KT 10SM BKN006 01/00 A3040 RMK AO2 T00120000 =
2018-01-16 13:15 METAR KMFV 161815Z AUTO 32005KT 7SM OVC006 01/00 A3040 RMK AO2 T00131001 =
2018-01-16 12:55 METAR KMFV 161755Z AUTO 30008KT 7SM BKN006 01/00 A3042 RMK AO2 T00111002 10040
                 21010 =
2018-01-16 12:35 METAR KMFV 161735Z AUTO 29008KT 10SM CLR 02/00 A3042 RMK AO2 T00240000 =
2018-01-16 12:15 METAR KMFV 161715Z AUTO 27005KT 10SM CLR 04/01 A3043 RMK AO2 T00350008 =
2018-01-16 11:55 METAR KMFV 161655Z AUTO 28005KT 10SM CLR 04/01 A3044 RMK AO2 T00390014 =
2018-01-16 11:35 METAR KMFV 161635Z AUTO 29004KT 7SM CLR 03/01 A3045 RMK AO2 T00300010 =
2018-01-16 11:15 METAR KMFV 161615Z AUTO 31003KT 5SM BR SCT004 02/01 A3046 RMK AO2 T00170008 =
2018-01-16 10:55 METAR KMFV 161555Z AUTO 30003KT 4SM BR OVC004 01/00 A3047 RMK AO2 T00080004 =
2018-01-16 10:35 METAR KMFV 161535Z AUTO 33005KT 2 1/2SM BR OVC002 00/00 A3047 RMK AO2 T00000000
                 =
2018-01-16 10:15 METAR KMFV 161515Z AUTO 32005KT 2SM BR OVC002 00/00 A3048 RMK AO2 T00020001 =

Support USWX by starting your Amazon purchase here.